Terminal Aerodrome Forecast
Issued by NWS

Home | Current Version | Previous Version | Text Only | Print | Product List | Glossary On
Versions: 1 2 3 4 5 6 7 8 9 10 11 12
048
FTUS43 KICT 182341
TAFCNU
TAF
KCNU 182341Z 1900/1924 15008KT P6SM SCT250
     FM190300 17005KT P6SM FEW250
     FM191600 18012KT P6SM SCT050=

USA.gov is the U.S. government's official web portal to all federal, state and local government web resources and services.